Time;durP1;ratioP1;P1;durP2;ratioP2;P2;SDS_P1;SDS_P2;PMS_P1;PMS_P2;Temp;Humidity;BMP_temperature;BMP_pressure;BME280_temperature;BME280_humidity;BME280_pressure;Samples;Min_cycle;Max_cycle;Signal;HPM_P1;HPM_P2
2021/01/08 00:02:33;;;;;;;21.92;14.43;;;;;;;;;;5137938;27;20182;-54
2021/01/08 00:05:00;;;;;;;15.25;11.30;;;;;;;;;;5126143;28;20230;-52
2021/01/08 00:10:32;;;;;;;20.83;14.85;;;;;;;;;;5146228;27;20225;-44
2021/01/08 00:12:58;;;;;;;16.45;12.57;;;;;;;;;;5140281;27;20206;-55
2021/01/08 00:15:26;;;;;;;17.67;13.00;;;;;;;;;;5151564;27;20207;-54
2021/01/08 00:17:53;;;;;;;25.92;17.30;;;;;;;;;;5149570;27;20194;-54
2021/01/08 00:20:19;;;;;;;21.30;13.05;;;;;;;;;;5148301;27;20174;-51
2021/01/08 00:22:47;;;;;;;22.92;15.80;;;;;;;;;;5157718;27;20190;-53
2021/01/08 00:25:14;;;;;;;16.08;12.30;;;;;;;;;;5155126;27;20230;-54
2021/01/08 00:27:41;;;;;;;16.45;11.43;;;;;;;;;;5160578;27;20193;-54
2021/01/08 00:30:14;;;;;;;19.88;12.90;;;;;;;;;;5154634;27;20198;-54
2021/01/08 00:32:43;;;;;;;21.05;14.30;;;;;;;;;;5159167;27;20210;-51
2021/01/08 00:35:13;;;;;;;18.63;13.35;;;;;;;;;;5156636;27;20188;-49
2021/01/08 00:37:51;;;;;;;18.33;12.45;;;;;;;;;;5140708;27;20215;-54
2021/01/08 00:40:17;;;;;;;15.68;12.63;;;;;;;;;;5142956;27;20214;-55
2021/01/08 00:42:45;;;;;;;16.55;11.25;;;;;;;;;;5131965;28;20191;-51
2021/01/08 00:45:20;;;;;;;19.40;13.30;;;;;;;;;;5139980;27;20194;-48
2021/01/08 00:47:52;;;;;;;17.75;13.40;;;;;;;;;;5154387;27;20177;-55
2021/01/08 00:50:19;;;;;;;18.33;11.75;;;;;;;;;;5156446;27;20217;-56
2021/01/08 00:52:55;;;;;;;18.33;13.57;;;;;;;;;;5161257;27;20175;-50
2021/01/08 00:55:23;;;;;;;16.65;12.15;;;;;;;;;;5160706;27;20201;-56
2021/01/08 01:00:43;;;;;;;17.17;13.35;;;;;;;;;;5149376;27;20213;-49
2021/01/08 01:03:10;;;;;;;15.63;11.70;;;;;;;;;;5156246;27;20202;-57
2021/01/08 01:05:42;;;;;;;19.05;13.98;;;;;;;;;;5160876;27;20193;-47
2021/01/08 01:08:09;;;;;;;16.52;12.35;;;;;;;;;;5139388;27;20206;-48
2021/01/08 01:10:49;;;;;;;17.60;12.55;;;;;;;;;;5138646;28;20239;-54
2021/01/08 01:13:17;;;;;;;19.45;14.05;;;;;;;;;;5140948;28;20230;-59
2021/01/08 01:15:45;;;;;;;18.58;13.45;;;;;;;;;;5140826;27;20186;-51
2021/01/08 01:18:15;;;;;;;19.88;14.15;;;;;;;;;;5156826;27;20189;-52
2021/01/08 01:20:45;;;;;;;17.90;13.25;;;;;;;;;;5160827;27;20190;-50
2021/01/08 01:23:12;;;;;;;18.85;14.57;;;;;;;;;;5161025;27;20183;-49
2021/01/08 01:26:14;;;;;;;19.77;13.38;;;;;;;;;;5141457;27;20203;-57
2021/01/08 01:28:49;;;;;;;19.13;13.32;;;;;;;;;;5139949;28;20190;-53
2021/01/08 01:31:35;;;;;;;19.02;12.38;;;;;;;;;;5140849;27;20228;-53
2021/01/08 01:34:21;;;;;;;23.10;15.52;;;;;;;;;;5155475;27;20199;-56
2021/01/08 01:36:49;;;;;;;25.27;16.77;;;;;;;;;;5141255;27;20215;-53
2021/01/08 01:39:15;;;;;;;18.38;13.10;;;;;;;;;;5138561;28;20216;-53
2021/01/08 01:41:50;;;;;;;19.08;13.13;;;;;;;;;;5139175;28;20206;-53
2021/01/08 01:44:17;;;;;;;17.55;14.23;;;;;;;;;;5147439;27;20241;-46
2021/01/08 01:46:44;;;;;;;23.63;16.92;;;;;;;;;;5159347;27;20215;-50
2021/01/08 01:52:16;;;;;;;18.20;13.30;;;;;;;;;;5136773;28;20217;-48
2021/01/08 01:54:44;;;;;;;17.77;12.25;;;;;;;;;;5137435;28;20275;-49
2021/01/08 01:57:27;;;;;;;20.27;14.75;;;;;;;;;;5121551;28;20202;-48
2021/01/08 01:59:54;;;;;;;15.15;10.80;;;;;;;;;;5118604;28;20256;-56
2021/01/08 02:02:24;;;;;;;24.77;18.27;;;;;;;;;;5127089;28;20183;-51
2021/01/08 02:05:10;;;;;;;20.30;15.63;;;;;;;;;;5139333;28;20213;-55
2021/01/08 02:07:39;;;;;;;34.15;24.02;;;;;;;;;;5138822;27;20198;-53
2021/01/08 02:10:07;;;;;;;18.17;13.93;;;;;;;;;;5138739;28;20195;-54
2021/01/08 02:12:46;;;;;;;20.70;13.00;;;;;;;;;;5138523;28;20202;-56
2021/01/08 02:15:13;;;;;;;15.40;11.32;;;;;;;;;;5138615;28;20186;-54
2021/01/08 02:17:40;;;;;;;14.35;10.45;;;;;;;;;;5139125;28;20264;-49
2021/01/08 02:23:15;;;;;;;45.50;31.83;;;;;;;;;;5138154;28;20196;-47
2021/01/08 02:25:43;;;;;;;18.20;11.30;;;;;;;;;;5138032;28;20191;-47
2021/01/08 02:28:20;;;;;;;19.30;13.00;;;;;;;;;;5138393;28;20203;-48
2021/01/08 02:30:48;;;;;;;12.30;9.32;;;;;;;;;;5138402;28;20198;-49
2021/01/08 02:33:33;;;;;;;14.57;11.50;;;;;;;;;;5138111;28;20175;-50
2021/01/08 02:36:01;;;;;;;13.02;9.50;;;;;;;;;;5137721;28;20216;-50
2021/01/08 02:38:28;;;;;;;17.27;13.65;;;;;;;;;;5137732;28;20287;-53
2021/01/08 02:44:00;;;;;;;13.52;10.18;;;;;;;;;;5137805;28;20197;-46
2021/01/08 02:46:26;;;;;;;11.70;8.40;;;;;;;;;;5137247;28;20207;-48
2021/01/08 02:48:56;;;;;;;18.20;14.15;;;;;;;;;;5137839;28;20210;-48
2021/01/08 02:51:23;;;;;;;12.43;10.40;;;;;;;;;;5137088;28;20246;-54
2021/01/08 02:53:50;;;;;;;16.15;11.38;;;;;;;;;;5137723;28;20194;-46
2021/01/08 02:56:34;;;;;;;18.10;12.82;;;;;;;;;;5137052;28;20193;-50
2021/01/08 02:59:03;;;;;;;14.77;11.07;;;;;;;;;;5137095;28;20217;-47
2021/01/08 03:01:30;;;;;;;14.32;10.35;;;;;;;;;;5137422;28;20202;-53
2021/01/08 03:04:00;;;;;;;12.13;8.80;;;;;;;;;;5137955;28;20212;-49
2021/01/08 03:06:28;;;;;;;11.20;8.73;;;;;;;;;;5138069;28;20205;-54
2021/01/08 03:09:01;;;;;;;12.77;9.48;;;;;;;;;;5138208;28;20243;-48
2021/01/08 03:11:28;;;;;;;10.85;8.48;;;;;;;;;;5137790;28;20303;-48
2021/01/08 03:13:55;;;;;;;12.77;9.38;;;;;;;;;;5136976;28;20202;-50
2021/01/08 03:16:29;;;;;;;13.88;9.77;;;;;;;;;;5137326;28;20212;-52
2021/01/08 03:18:56;;;;;;;16.92;10.55;;;;;;;;;;5140148;27;20235;-51
2021/01/08 03:21:23;;;;;;;12.98;9.77;;;;;;;;;;5158075;27;20206;-50
2021/01/08 03:23:51;;;;;;;13.77;10.27;;;;;;;;;;5157301;27;20194;-46
2021/01/08 03:26:17;;;;;;;10.60;8.77;;;;;;;;;;5157417;27;20205;-54
2021/01/08 03:28:44;;;;;;;10.45;8.25;;;;;;;;;;5158162;27;20186;-47
2021/01/08 03:31:16;;;;;;;10.48;8.98;;;;;;;;;;5157590;27;20186;-54
2021/01/08 03:33:44;;;;;;;13.00;10.70;;;;;;;;;;5148570;27;20239;-49
2021/01/08 03:36:11;;;;;;;13.82;10.30;;;;;;;;;;5155198;27;20194;-47
2021/01/08 03:38:50;;;;;;;14.27;9.85;;;;;;;;;;5157326;27;20245;-48
2021/01/08 03:41:17;;;;;;;11.38;9.85;;;;;;;;;;5157435;28;20206;-51
2021/01/08 03:43:44;;;;;;;14.85;11.40;;;;;;;;;;5157630;28;20201;-46
2021/01/08 03:46:23;;;;;;;14.15;10.50;;;;;;;;;;5157343;28;20200;-49
2021/01/08 03:48:50;;;;;;;10.07;8.50;;;;;;;;;;5157412;28;20201;-49
2021/01/08 03:51:17;;;;;;;15.80;11.00;;;;;;;;;;5157299;28;20220;-54
2021/01/08 03:53:44;;;;;;;12.32;9.43;;;;;;;;;;5157748;28;20230;-47
2021/01/08 03:56:10;;;;;;;10.45;8.70;;;;;;;;;;5157598;28;20197;-50
2021/01/08 03:58:37;;;;;;;11.65;9.32;;;;;;;;;;5156663;28;20239;-50
2021/01/08 04:01:22;;;;;;;12.43;10.43;;;;;;;;;;5157295;28;20210;-49
2021/01/08 04:03:50;;;;;;;13.20;9.18;;;;;;;;;;5156591;28;20219;-55
2021/01/08 04:06:17;;;;;;;11.48;8.45;;;;;;;;;;5156946;28;20232;-54
2021/01/08 04:08:46;;;;;;;12.07;8.98;;;;;;;;;;5157448;28;20210;-48
2021/01/08 04:11:13;;;;;;;11.85;9.20;;;;;;;;;;5167506;27;20222;-57
2021/01/08 04:13:40;;;;;;;10.50;8.10;;;;;;;;;;5177171;27;20204;-56
2021/01/08 04:16:13;;;;;;;14.98;10.30;;;;;;;;;;5177708;27;20261;-53
2021/01/08 04:18:40;;;;;;;11.43;8.93;;;;;;;;;;5154303;27;20222;-54
2021/01/08 04:21:10;;;;;;;15.52;10.77;;;;;;;;;;5140913;28;20325;-52
2021/01/08 04:23:53;;;;;;;12.45;9.48;;;;;;;;;;5157536;28;20219;-51
2021/01/08 04:26:23;;;;;;;13.35;10.50;;;;;;;;;;5156672;27;20202;-51
2021/01/08 04:28:50;;;;;;;10.52;8.70;;;;;;;;;;5152061;27;20215;-51
2021/01/08 04:31:17;;;;;;;13.48;9.90;;;;;;;;;;5156734;28;20229;-52
2021/01/08 04:33:44;;;;;;;12.50;10.07;;;;;;;;;;5156769;28;20405;-51
2021/01/08 04:36:21;;;;;;;12.43;9.73;;;;;;;;;;5156649;28;20194;-52
2021/01/08 04:38:48;;;;;;;11.80;8.35;;;;;;;;;;5142100;27;20242;-51
2021/01/08 04:41:16;;;;;;;10.98;7.97;;;;;;;;;;5136052;28;20186;-52
2021/01/08 04:46:47;;;;;;;10.68;8.05;;;;;;;;;;5142163;27;20228;-51
2021/01/08 04:49:15;;;;;;;10.30;9.05;;;;;;;;;;5160352;27;20193;-48
2021/01/08 04:51:44;;;;;;;12.23;8.93;;;;;;;;;;5173155;27;20201;-51
2021/01/08 04:54:11;;;;;;;11.65;7.95;;;;;;;;;;5181594;27;20269;-56
2021/01/08 04:56:39;;;;;;;11.52;8.40;;;;;;;;;;5175407;27;20195;-51
2021/01/08 04:59:28;;;;;;;12.02;9.68;;;;;;;;;;5149274;27;20233;-51
2021/01/08 05:01:54;;;;;;;10.00;7.68;;;;;;;;;;5140187;28;20190;-56
2021/01/08 05:04:21;;;;;;;8.93;7.85;;;;;;;;;;5139836;28;20209;-55
2021/01/08 05:06:49;;;;;;;11.90;8.05;;;;;;;;;;5140130;28;20190;-50
2021/01/08 05:09:16;;;;;;;11.10;8.50;;;;;;;;;;5163018;27;20217;-52
2021/01/08 05:11:46;;;;;;;8.50;7.25;;;;;;;;;;5151874;27;20174;-49
2021/01/08 05:14:14;;;;;;;9.88;7.88;;;;;;;;;;5160014;27;20201;-52
2021/01/08 05:16:42;;;;;;;12.70;9.20;;;;;;;;;;5154004;27;20199;-51
2021/01/08 05:19:09;;;;;;;9.90;7.63;;;;;;;;;;5156132;27;20257;-53
2021/01/08 05:21:37;;;;;;;12.15;7.95;;;;;;;;;;5142261;27;20187;-50
2021/01/08 05:24:12;;;;;;;14.00;9.07;;;;;;;;;;5144009;27;20195;-55
2021/01/08 05:26:39;;;;;;;8.50;7.35;;;;;;;;;;5139428;28;20210;-50
2021/01/08 05:29:05;;;;;;;10.43;7.90;;;;;;;;;;5139445;28;20206;-53
2021/01/08 05:31:33;;;;;;;12.95;7.75;;;;;;;;;;5146959;27;20204;-52
2021/01/08 05:34:00;;;;;;;11.68;8.68;;;;;;;;;;5148195;27;20360;-59
2021/01/08 05:36:27;;;;;;;11.75;7.65;;;;;;;;;;5139080;28;20195;-52
2021/01/08 05:38:54;;;;;;;10.57;7.00;;;;;;;;;;5138882;28;20212;-51
2021/01/08 05:41:24;;;;;;;10.00;7.07;;;;;;;;;;5138649;28;20484;-50
2021/01/08 05:43:50;;;;;;;10.07;6.85;;;;;;;;;;5139107;28;20194;-51
2021/01/08 05:46:18;;;;;;;9.63;7.68;;;;;;;;;;5139138;28;20237;-55
2021/01/08 05:49:02;;;;;;;10.93;8.35;;;;;;;;;;5138762;28;20233;-52
2021/01/08 05:51:31;;;;;;;10.55;7.28;;;;;;;;;;5138137;28;20202;-53
2021/01/08 05:53:59;;;;;;;11.60;7.50;;;;;;;;;;5138445;28;20190;-54
2021/01/08 05:59:31;;;;;;;12.85;8.82;;;;;;;;;;5138569;28;20217;-48
2021/01/08 06:01:57;;;;;;;8.65;7.03;;;;;;;;;;5138233;28;20210;-49
2021/01/08 06:04:30;;;;;;;11.38;7.95;;;;;;;;;;5137769;28;20191;-52
2021/01/08 06:06:58;;;;;;;8.43;6.63;;;;;;;;;;5138389;28;20231;-54
2021/01/08 06:09:38;;;;;;;11.77;7.10;;;;;;;;;;5138979;28;20327;-49
2021/01/08 06:12:05;;;;;;;10.57;6.72;;;;;;;;;;5140094;27;20190;-54
2021/01/08 06:14:33;;;;;;;12.20;7.60;;;;;;;;;;5137179;28;20217;-48
2021/01/08 06:17:26;;;;;;;14.68;8.52;;;;;;;;;;5139927;27;20206;-55
2021/01/08 06:20:02;;;;;;;10.57;7.22;;;;;;;;;;5157766;27;20224;-51
2021/01/08 06:22:35;;;;;;;9.90;7.25;;;;;;;;;;5139071;27;20208;-51
2021/01/08 06:25:02;;;;;;;10.43;7.88;;;;;;;;;;5139241;27;20190;-47
2021/01/08 06:27:32;;;;;;;9.63;7.20;;;;;;;;;;5159422;27;20181;-53
2021/01/08 06:30:20;;;;;;;10.15;7.38;;;;;;;;;;5179426;27;20197;-55
2021/01/08 06:32:48;;;;;;;9.52;7.25;;;;;;;;;;5178765;27;20194;-48
2021/01/08 06:35:17;;;;;;;10.65;6.90;;;;;;;;;;5178277;27;20253;-57
2021/01/08 06:37:44;;;;;;;10.95;7.25;;;;;;;;;;5178576;27;20204;-54
2021/01/08 06:40:12;;;;;;;11.52;7.85;;;;;;;;;;5179092;27;20225;-51
2021/01/08 06:42:47;;;;;;;13.02;8.10;;;;;;;;;;5179172;27;20266;-48
2021/01/08 06:45:16;;;;;;;12.70;7.85;;;;;;;;;;5178926;27;20185;-54
2021/01/08 06:47:47;;;;;;;10.55;7.43;;;;;;;;;;5179448;27;20191;-56
2021/01/08 06:50:37;;;;;;;10.68;7.10;;;;;;;;;;5179373;27;20231;-53
2021/01/08 06:53:11;;;;;;;12.18;7.88;;;;;;;;;;5178503;27;20213;-54
2021/01/08 06:55:39;;;;;;;12.95;7.97;;;;;;;;;;5150426;27;20206;-51
2021/01/08 06:58:06;;;;;;;9.93;7.50;;;;;;;;;;5157387;27;20198;-52
2021/01/08 07:00:34;;;;;;;10.55;6.78;;;;;;;;;;5157228;27;20219;-49
2021/01/08 07:03:10;;;;;;;17.75;9.82;;;;;;;;;;5156868;27;20174;-50
2021/01/08 07:05:37;;;;;;;13.93;8.40;;;;;;;;;;5157245;27;20205;-54
2021/01/08 07:08:04;;;;;;;13.20;8.25;;;;;;;;;;5156552;27;20199;-58
2021/01/08 07:10:50;;;;;;;11.65;8.38;;;;;;;;;;5144754;27;20195;-55
2021/01/08 07:13:28;;;;;;;16.05;8.90;;;;;;;;;;5134966;28;20248;-51
2021/01/08 07:15:56;;;;;;;11.93;8.50;;;;;;;;;;5136983;28;20227;-49
2021/01/08 07:18:33;;;;;;;10.30;7.30;;;;;;;;;;5136713;28;20191;-53
2021/01/08 07:21:00;;;;;;;10.27;7.25;;;;;;;;;;5123129;28;20207;-51
2021/01/08 07:23:54;;;;;;;9.50;6.60;;;;;;;;;;5116105;28;20199;-52
2021/01/08 07:26:21;;;;;;;9.85;6.50;;;;;;;;;;5116131;28;20191;-53
2021/01/08 07:28:48;;;;;;;12.18;7.15;;;;;;;;;;5142528;27;20203;-51
2021/01/08 07:31:31;;;;;;;11.07;7.15;;;;;;;;;;5157189;27;20615;-50
2021/01/08 07:33:58;;;;;;;14.25;8.38;;;;;;;;;;5137204;27;20217;-54
2021/01/08 07:36:26;;;;;;;9.48;6.53;;;;;;;;;;5136663;28;20197;-51
2021/01/08 07:38:53;;;;;;;9.70;6.32;;;;;;;;;;5136132;28;20283;-55
2021/01/08 07:41:32;;;;;;;9.95;6.70;;;;;;;;;;5147482;27;20178;-52
2021/01/08 07:44:26;;;;;;;12.05;8.00;;;;;;;;;;5157363;27;20178;-52
2021/01/08 07:46:54;;;;;;;18.38;11.57;;;;;;;;;;5125093;28;20210;-53
2021/01/08 07:49:34;;;;;;;10.77;7.32;;;;;;;;;;5143712;27;20198;-51
2021/01/08 07:52:01;;;;;;;8.60;6.78;;;;;;;;;;5144183;27;20190;-48
2021/01/08 07:54:48;;;;;;;9.65;7.25;;;;;;;;;;5154978;28;20210;-55
2021/01/08 07:57:24;;;;;;;11.77;7.50;;;;;;;;;;5135674;28;20195;-55
2021/01/08 07:59:52;;;;;;;11.95;6.85;;;;;;;;;;5136257;28;20218;-47
2021/01/08 08:02:21;;;;;;;12.88;8.63;;;;;;;;;;5154401;28;20202;-52
2021/01/08 08:04:49;;;;;;;11.60;8.38;;;;;;;;;;5157305;28;20614;-52
2021/01/08 08:07:17;;;;;;;12.80;9.93;;;;;;;;;;5157330;28;20210;-54
2021/01/08 08:12:48;;;;;;;11.75;9.15;;;;;;;;;;5155908;27;20237;-56
2021/01/08 08:15:16;;;;;;;11.32;8.75;;;;;;;;;;5156543;27;20186;-53
2021/01/08 08:18:13;;;;;;;13.18;10.13;;;;;;;;;;5155980;28;20244;-49
2021/01/08 08:20:41;;;;;;;14.15;10.85;;;;;;;;;;5160366;27;20233;-47
2021/01/08 08:23:14;;;;;;;16.17;11.02;;;;;;;;;;5160497;27;20240;-44
2021/01/08 08:25:58;;;;;;;12.60;9.20;;;;;;;;;;5160701;27;20198;-58
2021/01/08 08:28:24;;;;;;;14.10;10.38;;;;;;;;;;5160141;27;20235;-56
2021/01/08 08:30:51;;;;;;;11.95;9.80;;;;;;;;;;5160036;27;20190;-55
2021/01/08 08:33:19;;;;;;;13.05;10.70;;;;;;;;;;5160365;27;20204;-56
2021/01/08 08:35:47;;;;;;;16.38;11.98;;;;;;;;;;5160624;27;20250;-49
2021/01/08 08:38:19;;;;;;;11.30;9.60;;;;;;;;;;5146127;27;20320;-53
2021/01/08 08:40:46;;;;;;;11.65;9.55;;;;;;;;;;5138378;28;20236;-48
2021/01/08 08:43:20;;;;;;;11.75;8.75;;;;;;;;;;5138956;28;20210;-55
2021/01/08 08:46:09;;;;;;;11.90;9.02;;;;;;;;;;5139428;27;20198;-51
2021/01/08 08:48:35;;;;;;;16.08;9.80;;;;;;;;;;5139326;28;20207;-56
2021/01/08 08:51:05;;;;;;;12.00;9.38;;;;;;;;;;5137996;28;20211;-51
2021/01/08 08:53:32;;;;;;;16.15;10.02;;;;;;;;;;5128032;28;20193;-50
2021/01/08 08:56:11;;;;;;;14.02;10.05;;;;;;;;;;5118390;28;20202;-48
2021/01/08 08:58:45;;;;;;;12.48;9.68;;;;;;;;;;5118465;28;20203;-51
2021/01/08 09:01:12;;;;;;;12.52;9.05;;;;;;;;;;5118070;28;20187;-49
2021/01/08 09:03:39;;;;;;;13.02;9.70;;;;;;;;;;5118285;28;20200;-53
2021/01/08 09:06:11;;;;;;;11.82;9.60;;;;;;;;;;5118841;28;20214;-53
2021/01/08 09:08:40;;;;;;;12.07;10.23;;;;;;;;;;5119208;28;20191;-54
2021/01/08 09:11:14;;;;;;;14.02;9.35;;;;;;;;;;5129524;28;20206;-56
2021/01/08 09:14:16;;;;;;;14.40;10.00;;;;;;;;;;5119824;28;20212;-54
2021/01/08 09:16:45;;;;;;;10.82;8.68;;;;;;;;;;5138233;28;20187;-51
2021/01/08 09:19:16;;;;;;;13.40;9.60;;;;;;;;;;5138901;28;20222;-51
2021/01/08 09:21:50;;;;;;;11.68;7.90;;;;;;;;;;5138214;28;20203;-47
2021/01/08 09:24:20;;;;;;;14.05;10.07;;;;;;;;;;5138304;28;20221;-52
2021/01/08 09:26:46;;;;;;;11.45;8.75;;;;;;;;;;5138325;28;20209;-48
2021/01/08 09:29:28;;;;;;;12.55;8.77;;;;;;;;;;5137777;28;20220;-54
2021/01/08 09:31:57;;;;;;;13.30;8.65;;;;;;;;;;5137025;28;20196;-49
2021/01/08 09:34:25;;;;;;;14.25;10.02;;;;;;;;;;5119896;28;20268;-56
2021/01/08 09:36:55;;;;;;;10.02;7.70;;;;;;;;;;5138140;28;20190;-54
2021/01/08 09:39:23;;;;;;;11.88;8.93;;;;;;;;;;5137547;28;20324;-50
2021/01/08 09:42:06;;;;;;;13.02;9.02;;;;;;;;;;5158426;27;20205;-53
2021/01/08 09:44:33;;;;;;;10.68;8.68;;;;;;;;;;5158537;27;20208;-51
2021/01/08 09:47:00;;;;;;;10.65;8.13;;;;;;;;;;5158865;27;20175;-54
2021/01/08 09:52:32;;;;;;;11.25;8.60;;;;;;;;;;5149709;27;20170;-49
2021/01/08 09:54:58;;;;;;;10.20;7.15;;;;;;;;;;5135571;28;20203;-49
2021/01/08 09:57:43;;;;;;;14.48;8.95;;;;;;;;;;5122352;27;20183;-56
2021/01/08 10:00:11;;;;;;;11.65;7.55;;;;;;;;;;5139697;27;20283;-49
2021/01/08 10:02:39;;;;;;;10.57;7.72;;;;;;;;;;5136637;28;20216;-59
2021/01/08 10:05:06;;;;;;;9.20;6.40;;;;;;;;;;5137246;28;20202;-46
2021/01/08 10:07:42;;;;;;;11.63;7.18;;;;;;;;;;5136929;28;20614;-58
2021/01/08 10:10:14;;;;;;;10.48;7.50;;;;;;;;;;5137446;28;20235;-54
2021/01/08 10:12:49;;;;;;;13.63;7.38;;;;;;;;;;5138009;28;20174;-53
2021/01/08 10:15:17;;;;;;;9.68;7.07;;;;;;;;;;5137549;28;20217;-57
2021/01/08 10:17:48;;;;;;;14.50;8.75;;;;;;;;;;5136795;28;20199;-56
2021/01/08 10:20:16;;;;;;;10.02;7.00;;;;;;;;;;5136349;28;20240;-55
2021/01/08 10:23:04;;;;;;;10.35;7.05;;;;;;;;;;5137839;28;20205;-54
2021/01/08 10:25:32;;;;;;;10.45;7.07;;;;;;;;;;5136620;27;20209;-53
2021/01/08 10:28:11;;;;;;;12.10;7.82;;;;;;;;;;5137110;28;20179;-56
2021/01/08 10:30:50;;;;;;;12.25;7.25;;;;;;;;;;5137182;28;20201;-51
2021/01/08 10:33:17;;;;;;;10.88;7.93;;;;;;;;;;5136246;28;20203;-50
2021/01/08 10:35:48;;;;;;;11.95;8.05;;;;;;;;;;5130524;28;20183;-50
2021/01/08 10:38:17;;;;;;;13.02;7.95;;;;;;;;;;5137195;28;20190;-52
2021/01/08 10:40:44;;;;;;;12.05;7.55;;;;;;;;;;5138104;28;20246;-57
2021/01/08 10:43:11;;;;;;;11.35;8.65;;;;;;;;;;5138188;28;20259;-48
2021/01/08 10:45:50;;;;;;;12.23;8.13;;;;;;;;;;5138002;28;20183;-51
2021/01/08 10:48:17;;;;;;;14.85;8.43;;;;;;;;;;5138124;28;20229;-52
2021/01/08 10:50:44;;;;;;;11.55;7.20;;;;;;;;;;5137726;28;20210;-49
2021/01/08 10:53:13;;;;;;;12.95;8.32;;;;;;;;;;5136699;28;20199;-52
2021/01/08 10:55:42;;;;;;;11.90;8.00;;;;;;;;;;5137176;28;20179;-49
2021/01/08 10:58:10;;;;;;;11.05;7.60;;;;;;;;;;5137301;28;20182;-60
2021/01/08 11:00:50;;;;;;;12.95;8.60;;;;;;;;;;5137344;28;20246;-55
2021/01/08 11:03:17;;;;;;;11.02;7.55;;;;;;;;;;5137037;28;20198;-54
2021/01/08 11:05:44;;;;;;;10.20;7.07;;;;;;;;;;5135698;27;20221;-53
2021/01/08 11:08:13;;;;;;;12.95;8.60;;;;;;;;;;5135618;27;20202;-53
2021/01/08 11:10:41;;;;;;;11.05;6.90;;;;;;;;;;5134872;27;20218;-54
2021/01/08 11:13:08;;;;;;;9.00;6.15;;;;;;;;;;5130516;28;20199;-54
2021/01/08 11:16:03;;;;;;;8.15;5.90;;;;;;;;;;5135650;28;20199;-53
2021/01/08 11:18:30;;;;;;;10.77;7.13;;;;;;;;;;5133495;28;20243;-57
2021/01/08 11:20:56;;;;;;;9.68;6.53;;;;;;;;;;5135893;28;20223;-49
2021/01/08 11:23:23;;;;;;;13.65;6.35;;;;;;;;;;5135544;28;20191;-57
2021/01/08 11:25:50;;;;;;;9.15;6.47;;;;;;;;;;5135443;28;20198;-52
2021/01/08 11:28:48;;;;;;;9.82;6.05;;;;;;;;;;5134489;28;20179;-48
2021/01/08 11:31:14;;;;;;;9.75;7.15;;;;;;;;;;5133921;28;20191;-55
2021/01/08 11:33:43;;;;;;;8.80;6.57;;;;;;;;;;5135000;28;20172;-54
2021/01/08 11:36:40;;;;;;;11.90;6.82;;;;;;;;;;5135539;28;20214;-58
2021/01/08 11:39:13;;;;;;;10.25;6.97;;;;;;;;;;5134888;28;20230;-53
2021/01/08 11:41:41;;;;;;;9.27;7.30;;;;;;;;;;5134986;28;20263;-56
2021/01/08 11:44:08;;;;;;;13.15;8.13;;;;;;;;;;5134556;28;20195;-56
2021/01/08 11:46:35;;;;;;;12.15;8.68;;;;;;;;;;5134538;28;20187;-53
2021/01/08 11:49:25;;;;;;;12.30;8.50;;;;;;;;;;5135015;28;20187;-49
2021/01/08 11:52:01;;;;;;;10.68;7.63;;;;;;;;;;5134236;28;20279;-55
2021/01/08 11:54:29;;;;;;;15.00;8.45;;;;;;;;;;5137287;28;20255;-52
2021/01/08 11:57:15;;;;;;;15.75;9.00;;;;;;;;;;5132128;28;20195;-55
2021/01/08 11:59:42;;;;;;;13.60;9.43;;;;;;;;;;5139068;28;20273;-51
2021/01/08 12:02:09;;;;;;;14.63;9.93;;;;;;;;;;5139504;28;20203;-45
2021/01/08 12:05:13;;;;;;;13.25;9.43;;;;;;;;;;5140080;28;20209;-56
2021/01/08 12:07:40;;;;;;;15.00;9.77;;;;;;;;;;5140520;28;20206;-54
2021/01/08 12:10:08;;;;;;;16.52;11.45;;;;;;;;;;5140365;28;20191;-47
2021/01/08 12:12:40;;;;;;;16.02;10.75;;;;;;;;;;5139793;28;20210;-56
2021/01/08 12:15:08;;;;;;;12.45;8.95;;;;;;;;;;5140119;28;20203;-45
2021/01/08 12:17:41;;;;;;;15.00;8.82;;;;;;;;;;5139652;28;20188;-57
2021/01/08 12:20:22;;;;;;;11.23;8.27;;;;;;;;;;5139536;28;20234;-54
2021/01/08 12:22:50;;;;;;;11.32;8.20;;;;;;;;;;5128879;28;20219;-49
2021/01/08 12:25:16;;;;;;;9.93;7.68;;;;;;;;;;5139455;28;20207;-52
2021/01/08 12:30:50;;;;;;;10.82;8.15;;;;;;;;;;5150455;27;20287;-58
2021/01/08 12:33:17;;;;;;;11.48;8.07;;;;;;;;;;5141546;27;20255;-52
2021/01/08 12:36:16;;;;;;;12.35;8.73;;;;;;;;;;5160132;27;20429;-51
2021/01/08 12:38:43;;;;;;;10.30;7.70;;;;;;;;;;5149017;27;20214;-54
2021/01/08 12:41:09;;;;;;;12.32;8.60;;;;;;;;;;5159830;27;20222;-48
2021/01/08 12:43:39;;;;;;;19.92;9.45;;;;;;;;;;5160227;27;20216;-56
2021/01/08 12:46:06;;;;;;;10.23;7.53;;;;;;;;;;5160565;27;20194;-55
2021/01/08 12:48:34;;;;;;;14.85;9.02;;;;;;;;;;5159430;27;20198;-52
2021/01/08 12:51:10;;;;;;;11.30;8.05;;;;;;;;;;5152673;27;20202;-56
2021/01/08 12:53:37;;;;;;;12.07;8.35;;;;;;;;;;5157656;27;20194;-51
2021/01/08 12:56:04;;;;;;;14.00;9.18;;;;;;;;;;5159590;27;20191;-55
2021/01/08 12:58:44;;;;;;;9.63;8.18;;;;;;;;;;5160362;27;20261;-52
2021/01/08 13:01:22;;;;;;;15.10;10.32;;;;;;;;;;5149694;27;20237;-54
2021/01/08 13:03:49;;;;;;;11.73;9.35;;;;;;;;;;5128692;28;20193;-53
2021/01/08 13:06:43;;;;;;;13.45;9.20;;;;;;;;;;5138839;28;20218;-54
2021/01/08 13:09:15;;;;;;;15.02;10.10;;;;;;;;;;5134038;28;20199;-56
2021/01/08 13:11:50;;;;;;;13.50;9.68;;;;;;;;;;5130620;28;20207;-59
2021/01/08 13:14:16;;;;;;;13.27;9.68;;;;;;;;;;5138185;28;20201;-56
2021/01/08 13:16:51;;;;;;;10.25;8.35;;;;;;;;;;5138514;28;20203;-52
2021/01/08 13:19:18;;;;;;;12.43;8.30;;;;;;;;;;5117368;28;20236;-53
2021/01/08 13:21:47;;;;;;;14.27;9.68;;;;;;;;;;5118225;28;20187;-55
2021/01/08 13:24:14;;;;;;;10.45;8.90;;;;;;;;;;5133585;28;20179;-57
2021/01/08 13:26:54;;;;;;;12.50;8.75;;;;;;;;;;5137280;28;20203;-58
2021/01/08 13:29:21;;;;;;;10.98;8.65;;;;;;;;;;5137142;28;20206;-58
2021/01/08 13:31:50;;;;;;;13.00;9.02;;;;;;;;;;5138047;28;20191;-57
2021/01/08 13:34:19;;;;;;;12.75;8.95;;;;;;;;;;5117896;28;20294;-46
2021/01/08 13:36:47;;;;;;;14.43;9.35;;;;;;;;;;5117436;28;20200;-54
2021/01/08 13:39:21;;;;;;;13.27;9.13;;;;;;;;;;5128298;28;20290;-55
2021/01/08 13:41:58;;;;;;;14.65;8.75;;;;;;;;;;5133642;28;20209;-57
2021/01/08 13:44:25;;;;;;;14.30;9.05;;;;;;;;;;5137597;28;20208;-58
2021/01/08 13:46:57;;;;;;;13.90;7.70;;;;;;;;;;5118480;28;20228;-58
2021/01/08 13:49:23;;;;;;;10.77;8.50;;;;;;;;;;5133005;28;20299;-52
2021/01/08 13:51:56;;;;;;;12.75;9.55;;;;;;;;;;5136916;28;20191;-54
2021/01/08 13:54:23;;;;;;;11.90;8.73;;;;;;;;;;5129652;28;20180;-49
2021/01/08 13:56:50;;;;;;;12.52;8.88;;;;;;;;;;5138314;28;20187;-57
2021/01/08 13:59:20;;;;;;;13.38;8.98;;;;;;;;;;5138916;28;20188;-49
2021/01/08 14:01:49;;;;;;;10.75;7.82;;;;;;;;;;5125795;28;20244;-49
2021/01/08 14:04:18;;;;;;;11.77;8.48;;;;;;;;;;5131398;27;20186;-50
2021/01/08 14:06:47;;;;;;;13.10;9.75;;;;;;;;;;5138747;28;20204;-54
2021/01/08 14:09:26;;;;;;;12.02;8.10;;;;;;;;;;5128247;28;20210;-52
2021/01/08 14:11:58;;;;;;;13.05;8.90;;;;;;;;;;5111498;27;20231;-52
2021/01/08 14:14:25;;;;;;;11.32;7.80;;;;;;;;;;5138310;27;20309;-55
2021/01/08 14:16:52;;;;;;;11.80;7.82;;;;;;;;;;5137069;28;20225;-56
2021/01/08 14:19:20;;;;;;;8.57;6.15;;;;;;;;;;5137931;28;20195;-53
2021/01/08 14:21:47;;;;;;;10.52;6.80;;;;;;;;;;5138374;27;20210;-59
2021/01/08 14:24:14;;;;;;;13.18;8.43;;;;;;;;;;5158626;27;20187;-53
2021/01/08 14:26:42;;;;;;;11.60;6.13;;;;;;;;;;5119390;28;20219;-52
2021/01/08 14:29:16;;;;;;;13.85;7.30;;;;;;;;;;5137624;28;20290;-47
2021/01/08 14:31:44;;;;;;;14.07;8.32;;;;;;;;;;5137881;28;20192;-48
2021/01/08 14:34:12;;;;;;;10.70;6.60;;;;;;;;;;5137802;28;20214;-53
2021/01/08 14:36:48;;;;;;;8.45;6.18;;;;;;;;;;5137903;27;20198;-54
2021/01/08 14:39:16;;;;;;;10.75;6.38;;;;;;;;;;5154343;27;20186;-52
2021/01/08 14:41:44;;;;;;;8.45;5.47;;;;;;;;;;5131130;27;20196;-48
2021/01/08 14:44:41;;;;;;;9.40;6.28;;;;;;;;;;5137250;28;20203;-49
2021/01/08 14:47:08;;;;;;;9.00;6.32;;;;;;;;;;5151272;27;20225;-54
2021/01/08 14:49:35;;;;;;;10.32;5.50;;;;;;;;;;5157916;27;20203;-52
2021/01/08 14:52:08;;;;;;;7.85;5.60;;;;;;;;;;5157985;27;20351;-55
2021/01/08 14:54:35;;;;;;;8.77;5.85;;;;;;;;;;5156986;27;20206;-56
2021/01/08 14:57:01;;;;;;;9.35;5.40;;;;;;;;;;5157421;27;20205;-52
2021/01/08 14:59:35;;;;;;;8.93;6.03;;;;;;;;;;5157485;27;20230;-51
2021/01/08 15:02:02;;;;;;;20.25;11.52;;;;;;;;;;5151850;27;20182;-47
2021/01/08 15:04:29;;;;;;;11.73;8.48;;;;;;;;;;5157670;27;20194;-54
2021/01/08 15:07:16;;;;;;;9.90;6.50;;;;;;;;;;5157762;27;20202;-49
2021/01/08 15:09:44;;;;;;;13.68;8.30;;;;;;;;;;5152976;27;20221;-53
2021/01/08 15:12:10;;;;;;;14.25;6.75;;;;;;;;;;5151838;27;20199;-48
2021/01/08 15:14:38;;;;;;;12.02;7.03;;;;;;;;;;5153123;27;20224;-51
2021/01/08 15:17:05;;;;;;;11.60;6.95;;;;;;;;;;5150915;27;20213;-51
2021/01/08 15:19:48;;;;;;;10.35;7.43;;;;;;;;;;5143799;27;20257;-55
2021/01/08 15:22:16;;;;;;;12.15;8.45;;;;;;;;;;5152739;27;20207;-52
2021/01/08 15:24:44;;;;;;;17.45;9.45;;;;;;;;;;5154832;27;20186;-48